Time;durP1;ratioP1;P1;durP2;ratioP2;P2;SDS_P1;SDS_P2;PMS_P1;PMS_P2;Temp;Humidity;BMP_temperature;BMP_pressure;BME280_temperature;BME280_humidity;BME280_pressure;Samples;Min_cycle;Max_cycle;Signal;HPM_P1;HPM_P2
2022/10/26 00:02:18;;;;;;;12.65;7.50;;;12.10;99.90;;;;;;5091001;28;20043;-76
2022/10/26 00:04:43;;;;;;;11.98;6.65;;;12.10;99.90;;;;;;5091340;28;20035;-76
2022/10/26 00:07:09;;;;;;;11.40;6.95;;;12.20;99.90;;;;;;5100007;28;20023;-76
2022/10/26 00:09:35;;;;;;;11.95;7.55;;;12.10;99.90;;;;;;5108215;27;20076;-76
2022/10/26 00:12:01;;;;;;;12.15;6.90;;;12.10;99.90;;;;;;5087271;28;20070;-78
2022/10/26 00:14:28;;;;;;;13.70;6.90;;;12.10;99.90;;;;;;5080262;28;20028;-79
2022/10/26 00:16:54;;;;;;;13.18;8.20;;;12.10;99.90;;;;;;5085938;28;20035;-76
2022/10/26 00:19:20;;;;;;;13.05;7.85;;;12.10;99.90;;;;;;5104675;28;20032;-76
2022/10/26 00:21:46;;;;;;;14.75;7.28;;;12.00;99.90;;;;;;5104397;28;20024;-77
2022/10/26 00:24:12;;;;;;;11.15;6.85;;;12.00;99.90;;;;;;5102793;28;20020;-77
2022/10/26 00:26:39;;;;;;;13.85;6.90;;;12.00;99.90;;;;;;5096777;28;20574;-76
2022/10/26 00:29:05;;;;;;;12.55;7.60;;;12.00;99.90;;;;;;5090375;28;20028;-76
2022/10/26 00:31:33;;;;;;;11.05;7.05;;;12.00;99.90;;;;;;5103353;28;20023;-76
2022/10/26 00:33:59;;;;;;;13.20;7.95;;;12.00;99.90;;;;;;5108133;28;20518;-75
2022/10/26 00:36:25;;;;;;;17.83;7.97;;;11.90;99.90;;;;;;5091152;28;20032;-81
2022/10/26 00:38:53;;;;;;;14.20;8.23;;;11.90;99.90;;;;;;5106111;28;20561;-81
2022/10/26 00:41:26;;;;;;;15.73;7.65;;;11.90;99.90;;;;;;5099443;28;20032;-75
2022/10/26 00:43:52;;;;;;;13.63;7.63;;;11.90;99.90;;;;;;5101859;28;20079;-76
2022/10/26 00:46:25;;;;;;;16.52;7.03;;;11.90;99.90;;;;;;5106639;28;20030;-78
2022/10/26 00:48:57;;;;;;;10.10;6.60;;;11.80;99.90;;;;;;5089557;28;20019;-74
2022/10/26 00:51:26;;;;;;;12.85;7.28;;;11.80;99.90;;;;;;5103335;28;20031;-76
2022/10/26 00:53:53;;;;;;;11.63;6.78;;;11.80;99.90;;;;;;5106311;28;20080;-75
2022/10/26 00:56:19;;;;;;;13.05;7.03;;;11.80;99.90;;;;;;5106867;28;20032;-75
2022/10/26 00:58:45;;;;;;;12.73;7.35;;;11.80;99.90;;;;;;5088614;28;20020;-77
2022/10/26 01:01:11;;;;;;;13.57;6.93;;;11.80;99.90;;;;;;5083123;28;20042;-75
2022/10/26 01:03:38;;;;;;;13.43;7.35;;;11.70;99.90;;;;;;5103232;28;20031;-75
2022/10/26 01:06:05;;;;;;;13.77;7.30;;;11.70;99.90;;;;;;5067420;28;20398;-75
2022/10/26 01:08:31;;;;;;;13.15;6.88;;;11.70;99.90;;;;;;5096284;28;20503;-74
2022/10/26 01:11:00;;;;;;;11.32;6.72;;;11.70;99.90;;;;;;5093617;28;20042;-75
2022/10/26 01:13:29;;;;;;;13.68;7.65;;;11.70;99.90;;;;;;5103417;28;20031;-75
2022/10/26 01:16:03;;;;;;;12.43;6.88;;;11.70;99.90;;;;;;5085599;28;20024;-75
2022/10/26 01:18:36;;;;;;;13.95;7.57;;;11.60;99.90;;;;;;5084705;28;20146;-75
2022/10/26 01:21:41;;;;;;;13.57;7.97;;;11.60;99.90;;;;;;5101311;28;20039;-75
2022/10/26 01:24:28;;;;;;;13.15;7.32;;;11.60;99.90;;;;;;5082864;28;20368;-76
2022/10/26 01:27:07;;;;;;;12.20;7.32;;;11.60;99.90;;;;;;5099290;28;20073;-75
2022/10/26 01:30:07;;;;;;;14.23;7.82;;;11.60;99.90;;;;;;5088429;28;20028;-74
2022/10/26 01:32:44;;;;;;;13.77;7.28;;;11.60;99.90;;;;;;5101393;28;20080;-77
2022/10/26 01:35:22;;;;;;;18.55;7.45;;;11.50;99.90;;;;;;5106984;28;20557;-76
2022/10/26 01:37:57;;;;;;;12.98;8.18;;;11.50;99.90;;;;;;5093071;28;20042;-76
2022/10/26 01:40:35;;;;;;;12.15;7.10;;;11.50;99.90;;;;;;5087032;28;20024;-82
2022/10/26 01:43:06;;;;;;;13.48;7.28;;;11.50;99.90;;;;;;5082232;28;20691;-75
2022/10/26 01:45:36;;;;;;;12.60;7.05;;;11.50;99.90;;;;;;5098610;28;20032;-76
2022/10/26 01:48:03;;;;;;;16.88;7.10;;;11.50;99.90;;;;;;5101912;28;20020;-76
2022/10/26 01:50:30;;;;;;;15.55;7.45;;;11.50;99.90;;;;;;5096051;27;20031;-78
2022/10/26 01:52:56;;;;;;;13.57;7.38;;;11.50;99.90;;;;;;5106787;27;20341;-75
2022/10/26 01:55:40;;;;;;;13.82;7.40;;;11.50;99.90;;;;;;5101230;28;20072;-76
2022/10/26 01:58:35;;;;;;;18.20;8.27;;;11.50;99.90;;;;;;5086932;28;20474;-75
2022/10/26 02:01:22;;;;;;;14.80;8.40;;;11.40;99.90;;;;;;5099595;28;20137;-75
2022/10/26 02:03:59;;;;;;;15.15;7.55;;;11.50;99.90;;;;;;5102471;28;20024;-75
2022/10/26 02:06:51;;;;;;;13.00;7.97;;;11.40;99.90;;;;;;5082225;28;20062;-76
2022/10/26 02:09:32;;;;;;;13.38;7.63;;;11.40;99.90;;;;;;5070463;28;20027;-76
2022/10/26 02:12:01;;;;;;;13.95;7.70;;;11.40;99.90;;;;;;5096131;28;20032;-76
2022/10/26 02:15:02;;;;;;;16.38;7.70;;;11.40;99.90;;;;;;5089275;28;20503;-75
2022/10/26 02:17:41;;;;;;;11.40;6.95;;;11.40;99.90;;;;;;5085343;28;20043;-76
2022/10/26 02:20:10;;;;;;;11.30;6.57;;;11.40;99.90;;;;;;5072379;28;20032;-77
2022/10/26 02:22:44;;;;;;;14.38;7.22;;;11.40;99.90;;;;;;5088910;28;20077;-77
2022/10/26 02:25:32;;;;;;;14.63;7.47;;;11.40;99.90;;;;;;5089290;28;20082;-78
2022/10/26 02:28:03;;;;;;;13.75;7.72;;;11.40;99.90;;;;;;5086517;28;20081;-77
2022/10/26 02:30:30;;;;;;;10.93;7.00;;;11.40;99.90;;;;;;5075440;28;20069;-76
2022/10/26 02:32:57;;;;;;;11.52;7.10;;;11.30;99.90;;;;;;5087995;28;20027;-75
2022/10/26 02:35:30;;;;;;;14.63;7.80;;;11.40;99.90;;;;;;5085250;28;20083;-75
2022/10/26 02:38:00;;;;;;;13.85;7.80;;;11.30;99.90;;;;;;5102602;28;20028;-76
2022/10/26 02:40:28;;;;;;;17.10;7.63;;;11.30;99.90;;;;;;5103163;27;20069;-75
2022/10/26 02:42:56;;;;;;;13.15;7.45;;;11.30;99.90;;;;;;5096137;28;20072;-75
2022/10/26 02:45:26;;;;;;;13.48;7.75;;;11.30;99.90;;;;;;5101605;27;20036;-75
2022/10/26 02:47:53;;;;;;;11.20;7.32;;;11.30;99.90;;;;;;5106933;27;20015;-76
2022/10/26 02:50:26;;;;;;;11.00;7.07;;;11.30;99.90;;;;;;5080545;28;20020;-76
2022/10/26 02:53:24;;;;;;;11.50;7.47;;;11.30;99.90;;;;;;5091471;28;20372;-77
2022/10/26 02:55:51;;;;;;;13.55;8.57;;;11.20;99.90;;;;;;5083266;28;20549;-74
2022/10/26 02:58:28;;;;;;;14.82;8.18;;;11.20;99.90;;;;;;5067636;28;20051;-76
2022/10/26 03:00:54;;;;;;;13.25;7.63;;;11.20;99.90;;;;;;5071765;28;20050;-75
2022/10/26 03:03:20;;;;;;;15.68;8.63;;;11.20;99.90;;;;;;5083566;28;20036;-76
2022/10/26 03:05:46;;;;;;;16.27;8.00;;;11.10;99.90;;;;;;5092518;28;20024;-76
2022/10/26 03:08:12;;;;;;;15.35;8.25;;;11.10;99.90;;;;;;5085163;28;20389;-77
2022/10/26 03:10:43;;;;;;;16.08;8.60;;;11.10;99.90;;;;;;5097573;28;20150;-78
2022/10/26 03:13:09;;;;;;;12.15;8.13;;;11.10;99.90;;;;;;5099346;28;20521;-75
2022/10/26 03:15:35;;;;;;;12.48;7.72;;;11.00;99.90;;;;;;5088304;28;20118;-76
2022/10/26 03:18:02;;;;;;;11.63;7.93;;;11.10;99.90;;;;;;5102717;28;20162;-75
2022/10/26 03:20:28;;;;;;;15.60;8.80;;;11.10;99.90;;;;;;5103012;28;20124;-76
2022/10/26 03:22:55;;;;;;;17.83;8.77;;;11.00;99.90;;;;;;5089789;28;20487;-76
2022/10/26 03:25:23;;;;;;;12.63;7.72;;;11.00;99.90;;;;;;5100420;28;20035;-76
2022/10/26 03:28:00;;;;;;;12.63;7.65;;;11.00;99.90;;;;;;5081153;28;20028;-75
2022/10/26 03:30:26;;;;;;;15.05;8.07;;;11.00;99.90;;;;;;5099256;28;20044;-77
2022/10/26 03:32:52;;;;;;;13.77;8.18;;;11.00;99.90;;;;;;5106323;27;20055;-76
2022/10/26 03:35:18;;;;;;;14.45;8.25;;;11.00;99.90;;;;;;5103105;28;20162;-76
2022/10/26 03:37:44;;;;;;;15.07;8.10;;;11.00;99.90;;;;;;5107575;28;20464;-76
2022/10/26 03:40:10;;;;;;;12.40;8.25;;;11.00;99.90;;;;;;5103526;28;20062;-75
2022/10/26 03:42:36;;;;;;;14.85;9.00;;;11.00;99.90;;;;;;5100884;28;20486;-75
2022/10/26 03:45:04;;;;;;;16.02;8.60;;;10.90;99.90;;;;;;5110918;28;20051;-76
2022/10/26 03:47:29;;;;;;;14.82;9.20;;;10.90;99.90;;;;;;5109952;28;20406;-75
2022/10/26 03:49:56;;;;;;;16.80;8.18;;;10.90;99.90;;;;;;5097445;28;20020;-75
2022/10/26 03:52:23;;;;;;;12.20;7.88;;;10.90;99.90;;;;;;5111420;28;20027;-76
2022/10/26 03:54:49;;;;;;;16.38;8.95;;;10.90;99.90;;;;;;5100318;28;20036;-77
2022/10/26 03:57:16;;;;;;;15.68;8.98;;;10.90;99.90;;;;;;5090976;28;20031;-75
2022/10/26 03:59:42;;;;;;;15.20;9.23;;;10.80;99.90;;;;;;5087991;28;20445;-76
2022/10/26 04:02:08;;;;;;;16.45;9.20;;;10.80;99.90;;;;;;5101600;28;20038;-76
2022/10/26 04:04:33;;;;;;;16.33;8.98;;;10.90;99.90;;;;;;5103381;28;20024;-75
2022/10/26 04:07:00;;;;;;;14.73;8.68;;;10.90;99.90;;;;;;5092194;28;20571;-74
2022/10/26 04:09:26;;;;;;;15.23;8.90;;;10.90;99.90;;;;;;5101488;28;20034;-76
2022/10/26 04:11:51;;;;;;;19.10;9.98;;;10.80;99.90;;;;;;5104407;28;20106;-76
2022/10/26 04:14:17;;;;;;;19.58;9.70;;;10.80;99.90;;;;;;5066473;28;20070;-76
2022/10/26 04:16:43;;;;;;;15.80;9.55;;;10.80;99.90;;;;;;5099737;28;20035;-76
2022/10/26 04:19:08;;;;;;;18.80;10.38;;;10.80;99.90;;;;;;5095033;28;20041;-78
2022/10/26 04:21:34;;;;;;;19.13;9.93;;;10.80;99.90;;;;;;5091053;28;20552;-76
2022/10/26 04:24:00;;;;;;;17.52;10.10;;;10.80;99.90;;;;;;5108271;28;20062;-78
2022/10/26 04:26:26;;;;;;;15.32;9.48;;;10.80;99.90;;;;;;5102412;28;20081;-77
2022/10/26 04:28:52;;;;;;;18.88;10.07;;;10.80;99.90;;;;;;5106997;27;20035;-75
2022/10/26 04:31:18;;;;;;;19.02;9.93;;;10.80;99.90;;;;;;5094034;28;20020;-75
2022/10/26 04:33:44;;;;;;;19.77;11.57;;;10.80;99.90;;;;;;5100518;27;20043;-75
2022/10/26 04:36:10;;;;;;;20.00;10.70;;;10.80;99.90;;;;;;5099331;28;20032;-76
2022/10/26 04:38:35;;;;;;;20.42;10.80;;;10.80;99.90;;;;;;5103455;28;20069;-74
2022/10/26 04:41:01;;;;;;;18.33;11.02;;;10.80;99.90;;;;;;5096759;27;20114;-74
2022/10/26 04:43:27;;;;;;;22.02;10.80;;;10.80;99.90;;;;;;5097948;28;20559;-73
2022/10/26 04:45:56;;;;;;;27.45;12.07;;;10.70;99.90;;;;;;5100312;28;21164;-75
2022/10/26 04:48:23;;;;;;;22.45;11.50;;;10.80;99.90;;;;;;5100701;28;20036;-75
2022/10/26 04:50:48;;;;;;;21.23;11.50;;;10.70;99.90;;;;;;5081743;28;20477;-76
2022/10/26 04:53:14;;;;;;;25.08;12.10;;;10.70;99.90;;;;;;5086843;28;20122;-75
2022/10/26 04:55:40;;;;;;;19.52;10.88;;;10.70;99.90;;;;;;5100096;27;20024;-76
2022/10/26 04:58:06;;;;;;;21.40;11.35;;;10.70;99.90;;;;;;5100502;28;20045;-75
2022/10/26 05:00:32;;;;;;;20.08;10.95;;;10.70;99.90;;;;;;5087863;28;20051;-79
2022/10/26 05:02:59;;;;;;;22.55;12.48;;;10.70;99.90;;;;;;5088930;28;20033;-76
2022/10/26 05:05:25;;;;;;;24.33;12.15;;;10.70;99.90;;;;;;5077053;28;20034;-76
2022/10/26 05:07:55;;;;;;;22.13;11.32;;;10.70;99.90;;;;;;5083602;28;20165;-76
2022/10/26 05:10:21;;;;;;;19.35;11.45;;;10.70;99.90;;;;;;5086436;28;20593;-76
2022/10/26 05:12:54;;;;;;;20.10;11.40;;;10.70;99.90;;;;;;5104348;28;20020;-78
2022/10/26 05:15:20;;;;;;;19.38;11.95;;;10.70;99.90;;;;;;5103617;28;20028;-75
2022/10/26 05:17:58;;;;;;;19.60;12.18;;;10.70;99.90;;;;;;5090116;28;20034;-77
2022/10/26 05:20:28;;;;;;;19.73;12.00;;;10.70;99.90;;;;;;5101187;28;20031;-76
2022/10/26 05:22:59;;;;;;;20.98;11.50;;;10.70;99.90;;;;;;5086900;28;20054;-76
2022/10/26 05:25:26;;;;;;;20.63;12.15;;;10.70;99.90;;;;;;5099730;28;20089;-77
2022/10/26 05:28:05;;;;;;;20.20;11.52;;;10.60;99.90;;;;;;5086096;28;21493;-76
2022/10/26 05:30:31;;;;;;;23.02;12.15;;;10.70;99.90;;;;;;5103788;28;20034;-76
2022/10/26 05:32:58;;;;;;;19.77;11.50;;;10.60;99.90;;;;;;5081091;28;20431;-75
2022/10/26 05:35:26;;;;;;;23.65;11.80;;;10.60;99.90;;;;;;5080953;28;20038;-74
2022/10/26 05:37:52;;;;;;;24.00;12.32;;;10.60;99.90;;;;;;5068925;28;20829;-76
2022/10/26 05:40:18;;;;;;;22.73;13.20;;;10.60;99.90;;;;;;5097172;28;20577;-76
2022/10/26 05:42:44;;;;;;;22.52;12.23;;;10.60;99.90;;;;;;5088596;28;20080;-76
2022/10/26 05:45:11;;;;;;;22.23;13.15;;;10.60;99.90;;;;;;5089307;28;20077;-76
2022/10/26 05:47:41;;;;;;;19.98;12.25;;;10.60;99.90;;;;;;5086834;28;20023;-77
2022/10/26 05:50:08;;;;;;;27.27;13.68;;;10.60;99.90;;;;;;5081876;28;20138;-76
2022/10/26 05:52:42;;;;;;;25.15;13.32;;;10.60;99.90;;;;;;5085097;28;20034;-76
2022/10/26 05:55:09;;;;;;;25.23;14.25;;;10.60;99.90;;;;;;5098826;28;20100;-76
2022/10/26 05:57:36;;;;;;;29.70;14.70;;;10.60;99.90;;;;;;5085781;28;20118;-76
2022/10/26 06:00:09;;;;;;;20.05;11.80;;;10.60;99.90;;;;;;5073255;28;20705;-76
2022/10/26 06:02:53;;;;;;;25.40;14.80;;;11.20;99.90;;;;;;5099130;28;20487;-76
2022/10/26 06:05:25;;;;;;;25.50;15.02;;;11.40;99.90;;;;;;5105440;28;20024;-72
2022/10/26 06:07:51;;;;;;;;;;;11.10;99.90;;;;;;5080732;28;20028;-76
2022/10/26 06:10:17;;;;;;;31.63;14.95;;;10.90;99.90;;;;;;5093711;27;19908;-74
2022/10/26 06:12:44;;;;;;;34.83;16.83;;;10.70;99.90;;;;;;5068888;28;20028;-75
2022/10/26 06:15:20;;;;;;;36.65;17.25;;;10.70;99.90;;;;;;5077390;28;20097;-76
2022/10/26 06:17:54;;;;;;;38.28;18.38;;;10.60;99.90;;;;;;5098232;28;20172;-76
2022/10/26 06:20:41;;;;;;;40.65;18.85;;;10.60;99.90;;;;;;5081967;28;20031;-76
2022/10/26 06:23:35;;;;;;;43.30;19.15;;;10.60;99.90;;;;;;5103004;28;20399;-75
2022/10/26 06:26:13;;;;;;;37.97;18.83;;;10.60;99.90;;;;;;5083597;28;20492;-76
2022/10/26 06:28:52;;;;;;;47.63;21.38;;;10.60;99.90;;;;;;5094397;28;20361;-77
2022/10/26 06:31:18;;;;;;;47.35;21.30;;;10.60;99.90;;;;;;5077333;28;20107;-76
2022/10/26 06:33:44;;;;;;;44.83;21.63;;;10.50;99.90;;;;;;5105867;28;20561;-75
2022/10/26 06:36:26;;;;;;;43.28;20.52;;;10.50;99.90;;;;;;5080914;28;20036;-76
2022/10/26 06:39:03;;;;;;;48.67;21.60;;;10.50;99.90;;;;;;5091101;28;20024;-76
2022/10/26 06:41:34;;;;;;;47.75;20.50;;;10.50;99.90;;;;;;5084101;28;20050;-75
2022/10/26 06:44:01;;;;;;;45.10;20.15;;;10.50;99.90;;;;;;5092716;27;20406;-76
2022/10/26 06:46:40;;;;;;;48.65;21.23;;;10.50;99.90;;;;;;5079039;28;20039;-76
2022/10/26 06:49:35;;;;;;;45.38;21.38;;;10.50;99.90;;;;;;5080679;28;20063;-76
2022/10/26 06:52:19;;;;;;;44.00;21.33;;;10.50;99.90;;;;;;5102901;27;20032;-76
2022/10/26 06:54:53;;;;;;;44.75;21.50;;;10.50;99.90;;;;;;5105763;28;20043;-77
2022/10/26 06:57:31;;;;;;;43.38;21.40;;;10.50;99.90;;;;;;5094768;28;20023;-76
2022/10/26 07:00:13;;;;;;;43.92;19.70;;;10.50;99.90;;;;;;5099634;28;20544;-76
2022/10/26 07:02:39;;;;;;;35.65;18.65;;;10.50;99.90;;;;;;5072236;28;20112;-76
2022/10/26 07:05:08;;;;;;;35.67;18.98;;;10.60;99.90;;;;;;5086955;28;20468;-76
2022/10/26 07:07:37;;;;;;;35.83;17.42;;;10.60;99.90;;;;;;5096681;28;20073;-75
2022/10/26 07:10:05;;;;;;;30.02;15.68;;;10.60;99.90;;;;;;5078510;28;20024;-76
2022/10/26 07:12:31;;;;;;;27.60;15.43;;;10.60;99.90;;;;;;5097440;28;20047;-77
2022/10/26 07:14:57;;;;;;;27.27;14.63;;;10.60;99.90;;;;;;5080982;28;20085;-75
2022/10/26 07:17:23;;;;;;;24.20;14.18;;;10.70;99.90;;;;;;5096541;28;20070;-76
2022/10/26 07:19:49;;;;;;;23.25;13.55;;;10.70;99.90;;;;;;5102172;28;20118;-76
2022/10/26 07:22:15;;;;;;;25.63;13.38;;;10.70;99.90;;;;;;5099527;28;20609;-76
2022/10/26 07:24:40;;;;;;;23.60;13.38;;;10.80;99.90;;;;;;5083571;28;20109;-76
2022/10/26 07:27:06;;;;;;;25.17;13.38;;;10.80;99.90;;;;;;5098384;28;20019;-76
2022/10/26 07:29:34;;;;;;;22.05;13.18;;;10.80;99.90;;;;;;5083279;28;20103;-75
2022/10/26 07:32:00;;;;;;;23.52;12.88;;;10.80;99.90;;;;;;5097303;28;20034;-76
2022/10/26 07:34:25;;;;;;;23.80;12.80;;;10.80;99.90;;;;;;5090189;28;20032;-77
2022/10/26 07:36:51;;;;;;;22.10;12.15;;;10.90;99.90;;;;;;5096205;28;20107;-75
2022/10/26 07:39:17;;;;;;;23.23;12.60;;;10.90;99.90;;;;;;5091609;28;20089;-75
2022/10/26 07:41:44;;;;;;;18.25;11.50;;;10.90;99.90;;;;;;5098663;28;20673;-77
2022/10/26 07:44:10;;;;;;;20.67;12.13;;;10.90;99.90;;;;;;5100355;28;20032;-78
2022/10/26 07:46:36;;;;;;;25.00;12.80;;;10.90;99.90;;;;;;5081136;28;20028;-77
2022/10/26 07:49:02;;;;;;;19.73;10.98;;;11.00;99.90;;;;;;5097514;28;20028;-77
2022/10/26 07:51:27;;;;;;;25.00;10.52;;;11.00;99.90;;;;;;5101035;28;20103;-75
2022/10/26 07:53:53;;;;;;;21.65;11.02;;;11.00;99.90;;;;;;5079492;28;20182;-75
2022/10/26 07:56:19;;;;;;;19.00;10.43;;;11.10;99.90;;;;;;5104345;28;20411;-75
2022/10/26 07:58:45;;;;;;;18.75;11.18;;;11.10;99.90;;;;;;5095988;28;20050;-77
2022/10/26 08:01:13;;;;;;;19.67;10.57;;;11.10;99.90;;;;;;5102569;28;20115;-76
2022/10/26 08:03:39;;;;;;;16.00;10.25;;;11.10;99.90;;;;;;5088075;28;20031;-76
2022/10/26 08:06:06;;;;;;;18.98;10.77;;;11.10;99.90;;;;;;5097554;28;20060;-76
2022/10/26 08:08:32;;;;;;;19.85;10.70;;;11.10;99.90;;;;;;5108865;28;20098;-76
2022/10/26 08:10:58;;;;;;;19.90;11.48;;;11.20;99.90;;;;;;5086619;28;20525;-75
2022/10/26 08:13:24;;;;;;;20.25;10.23;;;11.20;99.90;;;;;;5084118;28;20060;-75
2022/10/26 08:15:57;;;;;;;20.40;10.18;;;11.20;99.90;;;;;;5096401;28;20024;-75
2022/10/26 08:18:22;;;;;;;19.50;10.25;;;11.30;99.90;;;;;;5073629;28;20032;-75
2022/10/26 08:20:48;;;;;;;14.93;9.00;;;11.30;99.90;;;;;;5094578;28;20049;-75
2022/10/26 08:23:14;;;;;;;17.65;9.50;;;11.30;99.90;;;;;;5104905;28;20433;-77
2022/10/26 08:25:39;;;;;;;15.88;9.75;;;11.40;99.90;;;;;;5070852;28;20383;-77
2022/10/26 08:28:05;;;;;;;17.02;9.90;;;11.40;99.90;;;;;;5092946;28;20028;-77
2022/10/26 08:30:32;;;;;;;14.10;9.98;;;11.40;99.90;;;;;;5075907;28;20068;-76
2022/10/26 08:33:02;;;;;;;18.75;8.82;;;11.40;99.90;;;;;;5072423;28;20028;-77
2022/10/26 08:35:28;;;;;;;15.95;8.75;;;11.40;99.90;;;;;;5106341;28;20027;-77
2022/10/26 08:37:54;;;;;;;16.85;8.00;;;11.40;99.90;;;;;;5106481;28;20024;-77
2022/10/26 08:40:32;;;;;;;13.38;8.10;;;11.50;99.90;;;;;;5103611;28;20777;-77
2022/10/26 08:43:25;;;;;;;20.42;8.30;;;11.50;99.90;;;;;;5090916;28;20031;-75
2022/10/26 08:45:56;;;;;;;14.05;8.13;;;11.50;99.90;;;;;;5102143;28;20023;-77
2022/10/26 08:48:34;;;;;;;14.27;8.43;;;11.50;99.90;;;;;;5109132;28;20038;-75
2022/10/26 08:51:34;;;;;;;15.63;8.40;;;11.60;99.90;;;;;;5102740;28;20491;-76
2022/10/26 08:54:12;;;;;;;13.63;8.23;;;11.60;99.90;;;;;;5083281;28;20040;-76
2022/10/26 08:56:49;;;;;;;14.38;8.07;;;11.60;99.90;;;;;;5089205;28;20031;-77
2022/10/26 08:59:24;;;;;;;17.60;8.82;;;11.60;99.90;;;;;;5104085;28;20045;-76
2022/10/26 09:01:49;;;;;;;16.80;9.00;;;11.70;99.90;;;;;;5072783;28;20121;-76
2022/10/26 09:04:15;;;;;;;27.08;9.23;;;11.70;99.90;;;;;;5104061;27;20043;-76
2022/10/26 09:07:04;;;;;;;15.13;9.02;;;11.80;99.90;;;;;;5107621;28;20027;-76
2022/10/26 09:09:40;;;;;;;19.27;9.30;;;11.80;99.90;;;;;;5070362;28;20040;-75
2022/10/26 09:12:30;;;;;;;13.60;8.65;;;11.80;99.90;;;;;;5098418;28;20028;-75
2022/10/26 09:15:24;;;;;;;19.45;8.50;;;11.80;99.90;;;;;;5089159;28;20118;-77
2022/10/26 09:18:04;;;;;;;15.13;6.85;;;12.40;99.90;;;;;;5082723;28;20036;-75
2022/10/26 09:20:39;;;;;;;15.82;8.30;;;13.40;99.90;;;;;;5094619;28;20580;-76
2022/10/26 09:23:10;;;;;;;13.35;8.07;;;13.60;99.90;;;;;;5105406;28;20518;-75
2022/10/26 09:25:40;;;;;;;11.00;7.70;;;13.40;99.90;;;;;;5106759;28;20386;-76
2022/10/26 09:28:20;;;;;;;13.75;7.85;;;13.00;99.90;;;;;;5072290;28;20024;-76
2022/10/26 09:30:47;;;;;;;10.55;8.07;;;12.70;99.90;;;;;;5098561;28;20588;-76
2022/10/26 09:33:22;;;;;;;13.50;8.20;;;12.50;99.90;;;;;;5094467;28;20036;-76
2022/10/26 09:35:55;;;;;;;15.52;7.55;;;12.40;99.90;;;;;;5102197;28;20053;-76
2022/10/26 09:38:41;;;;;;;13.15;8.00;;;12.50;99.90;;;;;;5107376;27;20162;-76
2022/10/26 09:41:23;;;;;;;14.82;7.97;;;12.80;99.90;;;;;;5088579;28;20034;-76
2022/10/26 09:44:02;;;;;;;13.13;8.18;;;12.60;99.90;;;;;;5107822;27;20514;-76
2022/10/26 09:46:43;;;;;;;12.13;7.25;;;12.60;99.90;;;;;;5100345;28;20117;-76
2022/10/26 09:49:12;;;;;;;12.00;6.65;;;12.70;99.90;;;;;;5104979;28;20020;-76
2022/10/26 09:51:41;;;;;;;12.05;6.28;;;13.20;99.90;;;;;;5071901;28;20426;-76
2022/10/26 09:54:20;;;;;;;12.10;6.50;;;13.70;99.90;;;;;;5086921;28;20055;-76
2022/10/26 09:56:50;;;;;;;9.00;5.20;;;13.90;99.90;;;;;;5103560;28;20032;-75
2022/10/26 09:59:18;;;;;;;9.37;5.57;;;14.00;99.90;;;;;;5107031;28;20043;-76
2022/10/26 10:01:44;;;;;;;11.30;6.38;;;14.20;99.90;;;;;;5086488;28;20107;-75
2022/10/26 10:04:13;;;;;;;11.55;6.75;;;13.80;99.90;;;;;;5093487;28;20431;-75
2022/10/26 10:06:39;;;;;;;11.65;6.80;;;13.60;99.90;;;;;;5105055;28;20103;-76
2022/10/26 10:09:09;;;;;;;12.98;6.15;;;13.40;99.90;;;;;;5105784;27;20027;-76
2022/10/26 10:11:54;;;;;;;14.05;7.18;;;13.90;99.90;;;;;;5087660;28;20012;-76
2022/10/26 10:14:25;;;;;;;14.05;7.00;;;13.90;99.90;;;;;;5103076;28;20483;-77
2022/10/26 10:16:57;;;;;;;11.52;6.40;;;13.70;99.90;;;;;;5100486;28;20050;-77
2022/10/26 10:19:28;;;;;;;13.52;6.47;;;13.60;99.90;;;;;;5108327;27;20524;-76
2022/10/26 10:21:57;;;;;;;13.05;6.57;;;13.60;99.90;;;;;;5085752;28;20157;-76
2022/10/26 10:24:25;;;;;;;10.18;6.50;;;13.70;99.90;;;;;;5091777;28;20034;-77
2022/10/26 10:26:55;;;;;;;8.95;5.63;;;14.20;99.90;;;;;;5094222;28;20030;-76
2022/10/26 10:29:24;;;;;;;10.10;5.82;;;14.80;99.90;;;;;;5108091;28;20095;-76
2022/10/26 10:31:58;;;;;;;10.20;5.50;;;15.30;99.90;;;;;;5071811;28;20111;-76
2022/10/26 10:34:24;;;;;;;9.40;5.47;;;15.60;99.90;;;;;;5090394;28;20106;-78
2022/10/26 10:36:51;;;;;;;9.48;5.38;;;16.00;99.90;;;;;;5104930;28;20051;-77
2022/10/26 10:39:40;;;;;;;10.90;5.82;;;16.20;99.90;;;;;;5109094;27;20032;-76
2022/10/26 10:42:28;;;;;;;9.57;5.30;;;16.50;99.90;;;;;;5104120;28;20027;-77
2022/10/26 10:44:56;;;;;;;8.65;4.70;;;16.80;99.90;;;;;;5094188;28;20020;-77
2022/10/26 10:47:24;;;;;;;11.15;5.70;;;16.80;99.90;;;;;;5086982;28;20399;-77
2022/10/26 10:50:00;;;;;;;6.63;5.03;;;16.60;99.90;;;;;;5097705;28;20502;-76
2022/10/26 10:52:32;;;;;;;8.23;5.53;;;16.50;99.90;;;;;;5090327;28;20027;-77
2022/10/26 10:55:12;;;;;;;10.32;5.28;;;16.40;99.90;;;;;;5093375;28;20062;-76
2022/10/26 10:57:52;;;;;;;8.35;4.65;;;16.10;99.90;;;;;;5098925;28;20035;-77
2022/10/26 11:00:19;;;;;;;7.88;4.57;;;15.80;99.90;;;;;;5096161;28;20054;-76
2022/10/26 11:03:05;;;;;;;9.40;5.40;;;15.60;99.90;;;;;;5096190;28;20031;-76
2022/10/26 11:05:43;;;;;;;11.15;5.28;;;15.50;99.90;;;;;;5079491;28;20491;-76
2022/10/26 11:08:14;;;;;;;9.43;5.78;;;15.30;99.90;;;;;;5090291;28;20024;-77
2022/10/26 11:10:51;;;;;;;9.13;5.82;;;15.20;99.90;;;;;;5099416;28;20094;-76
2022/10/26 11:13:22;;;;;;;9.52;5.20;;;15.10;99.90;;;;;;5103361;28;20036;-75
2022/10/26 11:15:53;;;;;;;7.65;5.10;;;15.10;99.90;;;;;;5072306;28;20081;-76
2022/10/26 11:18:25;;;;;;;7.97;4.95;;;15.00;99.90;;;;;;5095027;28;20646;-76
2022/10/26 11:21:38;;;;;;;7.85;4.50;;;15.10;99.90;;;;;;5100978;28;20448;-76
2022/10/26 11:24:16;;;;;;;11.20;5.72;;;15.00;99.90;;;;;;5063681;28;20046;-75
2022/10/26 11:26:52;;;;;;;8.02;5.47;;;14.90;99.90;;;;;;5071781;28;20693;-76
2022/10/26 11:29:34;;;;;;;12.07;5.63;;;14.90;99.90;;;;;;5096042;28;20450;-76
2022/10/26 11:32:32;;;;;;;10.85;5.90;;;14.80;99.90;;;;;;5070323;28;20106;-75
2022/10/26 11:35:09;;;;;;;7.85;5.50;;;14.90;99.90;;;;;;5055992;28;20125;-77
2022/10/26 11:37:51;;;;;;;9.65;5.43;;;14.80;99.90;;;;;;5099787;28;20119;-76
2022/10/26 11:40:29;;;;;;;12.32;5.72;;;14.80;99.90;;;;;;5084267;28;20041;-76
2022/10/26 11:43:06;;;;;;;10.63;5.18;;;14.80;99.90;;;;;;5097435;27;20616;-76
2022/10/26 11:45:40;;;;;;;15.13;5.57;;;14.90;99.90;;;;;;5104929;28;20027;-76
2022/10/26 11:48:19;;;;;;;10.75;5.70;;;15.00;99.90;;;;;;5092243;28;20047;-77
2022/10/26 11:50:49;;;;;;;10.38;5.30;;;15.00;99.90;;;;;;5098632;28;20024;-77
2022/10/26 11:53:19;;;;;;;9.90;4.80;;;15.00;99.90;;;;;;5086314;28;20028;-77
2022/10/26 11:55:50;;;;;;;10.02;6.57;;;14.90;99.90;;;;;;5089630;28;20059;-77
2022/10/26 11:58:17;;;;;;;12.35;6.30;;;15.00;99.90;;;;;;5110003;27;20038;-77
2022/10/26 12:00:49;;;;;;;8.50;4.80;;;14.90;99.90;;;;;;5107904;27;20106;-77
2022/10/26 12:03:20;;;;;;;5.13;3.63;;;14.90;99.90;;;;;;5105150;28;20035;-76
2022/10/26 12:05:48;;;;;;;9.60;4.55;;;14.90;99.90;;;;;;5089030;28;20043;-77
2022/10/26 12:08:23;;;;;;;9.57;4.35;;;14.90;99.90;;;;;;5098821;27;20085;-78
2022/10/26 12:10:58;;;;;;;647.70;421.13;;;14.80;99.90;;;;;;5103545;28;20099;-76
2022/10/26 12:13:33;;;;;;;241.85;147.43;;;14.80;99.90;;;;;;5085619;28;20041;-77
2022/10/26 12:16:29;;;;;;;355.52;239.65;;;14.80;99.90;;;;;;5104838;27;20081;-77
2022/10/26 12:19:03;;;;;;;110.72;70.97;;;14.80;99.90;;;;;;5077556;28;20030;-77
2022/10/26 12:21:31;;;;;;;19.20;9.63;;;14.90;99.90;;;;;;5094711;27;20046;-76
2022/10/26 12:24:20;;;;;;;9.93;6.82;;;14.90;99.90;;;;;;5089219;28;20028;-76
2022/10/26 12:27:02;;;;;;;11.00;4.88;;;14.90;99.90;;;;;;5102549;27;20093;-77
2022/10/26 12:29:27;;;;;;;16.17;4.70;;;14.90;99.90;;;;;;5098042;28;20514;-76
2022/10/26 12:31:53;;;;;;;6.75;3.63;;;15.00;99.90;;;;;;5092903;28;20122;-77
2022/10/26 12:34:37;;;;;;;6.55;3.80;;;15.00;99.90;;;;;;5101841;28;20024;-77
2022/10/26 12:37:03;;;;;;;6.00;3.17;;;15.10;99.90;;;;;;5102893;27;20024;-77
2022/10/26 12:39:31;;;;;;;8.90;3.60;;;15.10;99.90;;;;;;5090807;28;20032;-77
2022/10/26 12:42:28;;;;;;;5.85;3.25;;;15.20;99.90;;;;;;5087118;28;20036;-77
2022/10/26 12:44:53;;;;;;;5.93;2.97;;;15.20;99.90;;;;;;5093786;27;20042;-77
2022/10/26 12:47:28;;;;;;;5.53;3.00;;;15.20;99.90;;;;;;5098649;28;20028;-77
2022/10/26 12:50:14;;;;;;;7.25;3.40;;;15.30;99.90;;;;;;5102757;27;20370;-77
2022/10/26 12:52:42;;;;;;;7.25;3.53;;;15.30;99.90;;;;;;5089461;28;20031;-76
2022/10/26 12:55:11;;;;;;;4.18;2.60;;;15.30;99.90;;;;;;5098545;28;20040;-77
2022/10/26 12:57:51;;;;;;;5.28;2.90;;;15.40;99.90;;;;;;5079054;28;20072;-77
2022/10/26 13:00:22;;;;;;;6.43;3.10;;;15.40;99.90;;;;;;5086923;28;20032;-76